createdAt,value
2017-02-17T00:00:13.361Z,27.3
2017-02-17T00:01:13.477Z,27.3
2017-02-17T00:02:13.542Z,27.3
2017-02-17T00:03:15.452Z,27.3
2017-02-17T00:04:13.786Z,27.3
2017-02-17T00:05:15.561Z,27.3
2017-02-17T00:06:13.778Z,27.3
2017-02-17T00:07:13.730Z,27.3
2017-02-17T00:08:13.698Z,27.3
2017-02-17T00:09:15.684Z,27.3
2017-02-17T00:10:15.793Z,27.3
2017-02-17T00:11:15.791Z,27.3
2017-02-17T00:12:15.844Z,27.3
2017-02-17T00:13:13.937Z,27.3
2017-02-17T00:14:15.925Z,27.3
2017-02-17T00:15:14.106Z,27.3
2017-02-17T00:16:16.181Z,27.3
2017-02-17T00:17:16.071Z,27.3
2017-02-17T00:18:16.159Z,27.3
2017-02-17T00:19:16.161Z,27.3
2017-02-17T00:20:16.244Z,27.3
2017-02-17T00:21:14.340Z,27.3
2017-02-17T00:22:14.629Z,27.3
2017-02-17T00:23:14.442Z,27.3
2017-02-17T00:24:16.431Z,27.3
2017-02-17T00:25:16.446Z,27.3
2017-02-17T00:26:16.578Z,27.3
2017-02-17T00:27:14.593Z,27.3
2017-02-17T00:28:14.826Z,27.3
2017-02-17T00:29:16.614Z,27.3
2017-02-17T00:30:14.845Z,27.3
2017-02-17T00:31:16.736Z,27.3
2017-02-17T00:32:14.905Z,27.3
2017-02-17T00:33:14.930Z,27.3
2017-02-17T00:34:17.064Z,27.3
2017-02-17T00:35:16.980Z,27.2
2017-02-17T00:36:15.124Z,27.2
2017-02-17T00:37:17.173Z,27.2
2017-02-17T00:38:15.140Z,27.2
2017-02-17T00:39:15.262Z,27.2
2017-02-17T00:40:15.478Z,27.2
2017-02-17T00:41:17.254Z,27.2
2017-02-17T00:42:15.379Z,27.2
2017-02-17T00:43:15.308Z,27.2
2017-02-17T00:44:17.330Z,27.2
2017-02-17T00:45:17.427Z,27.2
2017-02-17T00:46:15.840Z,27.2
2017-02-17T00:47:15.454Z,27.2
2017-02-17T00:48:15.593Z,27.2
2017-02-17T00:49:17.531Z,27.2
2017-02-17T00:50:15.616Z,27.2
2017-02-17T00:51:17.641Z,27.2
2017-02-17T00:52:17.807Z,27.2
2017-02-17T00:53:17.677Z,27.2
2017-02-17T00:54:17.694Z,27.2
2017-02-17T00:55:15.882Z,27.2
2017-02-17T00:56:15.871Z,27.2
2017-02-17T00:57:15.832Z,27.2
2017-02-17T00:58:16.041Z,27.2
2017-02-17T00:59:17.785Z,27.2
2017-02-17T01:00:15.979Z,27.2
2017-02-17T01:01:15.969Z,27.2
2017-02-17T01:02:17.918Z,27.2
2017-02-17T01:03:16.041Z,27.2
2017-02-17T01:04:16.305Z,27.2
2017-02-17T01:05:16.264Z,27.2
2017-02-17T01:06:16.167Z,27.2
2017-02-17T01:07:18.204Z,27.2
2017-02-17T01:08:16.388Z,27.2
2017-02-17T01:09:16.474Z,27.2
2017-02-17T01:10:18.624Z,27.2
2017-02-17T01:11:16.645Z,27.2
2017-02-17T01:12:18.552Z,27.2
2017-02-17T01:13:18.620Z,27.2
2017-02-17T01:14:16.650Z,27.2
2017-02-17T01:15:18.749Z,27.2
2017-02-17T01:16:17.025Z,27.2
2017-02-17T01:17:16.840Z,27.2
2017-02-17T01:18:18.779Z,27.2
2017-02-17T01:19:16.880Z,27.2
2017-02-17T01:20:17.039Z,27.2
2017-02-17T01:21:18.941Z,27.2
2017-02-17T01:22:19.271Z,27.2
2017-02-17T01:23:17.267Z,27.2
2017-02-17T01:24:17.210Z,27.2
2017-02-17T01:25:19.210Z,27.2
2017-02-17T01:26:19.333Z,27.2
2017-02-17T01:27:19.348Z,27.2
2017-02-17T01:28:17.659Z,27.2
2017-02-17T01:29:19.410Z,27.2
2017-02-17T01:30:19.443Z,27.2
2017-02-17T01:31:17.495Z,27.2
2017-02-17T01:32:19.462Z,27.2
2017-02-17T01:33:17.555Z,27.2
2017-02-17T01:34:17.855Z,27.2
2017-02-17T01:35:17.642Z,27.2
2017-02-17T01:36:17.741Z,27.2
2017-02-17T01:37:17.842Z,27.2
2017-02-17T01:38:17.903Z,27.2
2017-02-17T01:39:18.017Z,27.2
2017-02-17T01:40:18.116Z,27.2
2017-02-17T01:41:17.995Z,27.2
2017-02-17T01:42:18.070Z,27.2
2017-02-17T01:43:18.119Z,27.2
2017-02-17T01:44:20.209Z,27.2
2017-02-17T01:45:20.977Z,27.2
2017-02-17T01:46:20.588Z,27.2
2017-02-17T01:47:20.304Z,27.2
2017-02-17T01:48:20.450Z,27.2
2017-02-17T01:49:20.486Z,27.2
2017-02-17T01:50:18.551Z,27.2
2017-02-17T01:51:20.525Z,27.2
2017-02-17T01:52:20.656Z,27.2
2017-02-17T01:53:20.631Z,27.2
2017-02-17T01:54:18.692Z,27.2
2017-02-17T01:55:18.781Z,27.2
2017-02-17T01:56:18.806Z,27.2
2017-02-17T01:57:20.795Z,27.2
2017-02-17T01:58:19.238Z,27.2
2017-02-17T01:59:20.972Z,27.2
2017-02-17T02:00:19.117Z,27.2
2017-02-17T02:01:21.053Z,27.2
2017-02-17T02:02:21.093Z,27.2
2017-02-17T02:03:19.124Z,27.2
2017-02-17T02:04:21.134Z,27.2
2017-02-17T02:05:19.411Z,27.1
2017-02-17T02:06:21.317Z,27.2
2017-02-17T02:07:19.382Z,27.2
2017-02-17T02:08:19.412Z,27.2
2017-02-17T02:09:19.478Z,27.2
2017-02-17T02:10:19.600Z,27.2
2017-02-17T02:11:21.441Z,27.2
2017-02-17T02:12:21.523Z,27.2
2017-02-17T02:13:19.569Z,27.2
2017-02-17T02:14:19.770Z,27.2
2017-02-17T02:15:21.684Z,27.2
2017-02-17T02:16:19.893Z,27.2
2017-02-17T02:17:21.857Z,27.2
2017-02-17T02:18:21.904Z,27.2
2017-02-17T02:19:21.944Z,27.2
2017-02-17T02:20:20.122Z,27.2
2017-02-17T02:21:21.998Z,27.2
2017-02-17T02:22:20.207Z,27.2
2017-02-17T02:23:22.145Z,27.2
2017-02-17T02:24:20.201Z,27.1
2017-02-17T02:25:22.300Z,27.2
2017-02-17T02:26:20.373Z,27.2
2017-02-17T02:27:22.380Z,27.1
2017-02-17T02:28:22.431Z,27.2
2017-02-17T02:29:20.527Z,27.1
2017-02-17T02:30:20.545Z,27.1
2017-02-17T02:31:20.546Z,27.1
2017-02-17T02:32:20.651Z,27.1
2017-02-17T02:33:22.619Z,27.1
2017-02-17T02:34:22.617Z,27.1
2017-02-17T02:35:22.755Z,27.1
2017-02-17T02:36:20.875Z,27.1
2017-02-17T02:37:22.733Z,27.1
2017-02-17T02:38:22.758Z,27.1
2017-02-17T02:39:20.882Z,27.1
2017-02-17T02:40:20.980Z,27.1
2017-02-17T02:41:21.053Z,27.1
2017-02-17T02:42:23.021Z,27.1
2017-02-17T02:43:23.143Z,27.1
2017-02-17T02:44:21.169Z,27.1
2017-02-17T02:45:21.216Z,27.1
2017-02-17T02:46:23.157Z,27.1
2017-02-17T02:47:21.360Z,27.1
2017-02-17T02:48:23.323Z,27.1
2017-02-17T02:49:21.423Z,27.1
2017-02-17T02:50:23.447Z,27.1
2017-02-17T02:51:23.516Z,27.1
2017-02-17T02:52:21.576Z,27.1
2017-02-17T02:53:21.568Z,27.1
2017-02-17T02:54:21.642Z,27.1
2017-02-17T02:55:21.689Z,27.1
2017-02-17T02:56:23.707Z,27.1
2017-02-17T02:57:21.846Z,27.1
2017-02-17T02:58:23.734Z,27.1
2017-02-17T02:59:21.962Z,27.1
2017-02-17T03:00:23.862Z,27.1
2017-02-17T03:01:23.844Z,27.1
2017-02-17T03:02:24.572Z,27.1
2017-02-17T03:03:22.118Z,27.1
2017-02-17T03:04:22.129Z,27.1
2017-02-17T03:05:22.187Z,27.1
2017-02-17T03:06:24.119Z,27.1
2017-02-17T03:07:24.132Z,27.1
2017-02-17T03:08:24.874Z,27.1
2017-02-17T03:09:22.326Z,27.1
2017-02-17T03:10:24.297Z,27.1
2017-02-17T03:11:22.378Z,27.1
2017-02-17T03:12:23.133Z,27.1
2017-02-17T03:13:24.495Z,27.1
2017-02-17T03:14:24.586Z,27.1
2017-02-17T03:15:22.712Z,27.1
2017-02-17T03:16:22.793Z,27.1
2017-02-17T03:17:24.736Z,27.1
2017-02-17T03:18:22.860Z,27.1
2017-02-17T03:19:24.803Z,27.1
2017-02-17T03:20:22.891Z,27.1
2017-02-17T03:21:22.967Z,27.1
2017-02-17T03:22:24.880Z,27.1
2017-02-17T03:23:22.877Z,27.1
2017-02-17T03:24:24.931Z,27.1
2017-02-17T03:25:24.957Z,27.1
2017-02-17T03:26:23.090Z,27.1
2017-02-17T03:27:23.215Z,27.1
2017-02-17T03:28:23.159Z,27.1
2017-02-17T03:29:25.193Z,27.1
2017-02-17T03:30:25.215Z,27.1
2017-02-17T03:31:23.322Z,27.1
2017-02-17T03:32:25.322Z,27.1
2017-02-17T03:33:23.459Z,27.1
2017-02-17T03:34:25.435Z,27.1
2017-02-17T03:35:25.483Z,27.1
2017-02-17T03:36:23.568Z,27.1
2017-02-17T03:37:25.475Z,27.1
2017-02-17T03:38:23.579Z,27.1
2017-02-17T03:39:25.600Z,27.1
2017-02-17T03:40:25.596Z,27.1
2017-02-17T03:41:23.847Z,27.1
2017-02-17T03:42:25.778Z,27.1
2017-02-17T03:43:23.951Z,27.1
2017-02-17T03:44:24.097Z,27.1
2017-02-17T03:45:24.070Z,27.1
2017-02-17T03:46:26.153Z,27.1
2017-02-17T03:47:24.244Z,27.1
2017-02-17T03:48:24.142Z,27
2017-02-17T03:49:26.045Z,27.1
2017-02-17T03:50:26.140Z,27
2017-02-17T03:51:26.306Z,27
2017-02-17T03:52:26.190Z,27.1
2017-02-17T03:53:26.160Z,27.1
2017-02-17T03:54:24.273Z,27.1
2017-02-17T03:55:24.409Z,27.1
2017-02-17T03:56:26.373Z,27
2017-02-17T03:57:26.475Z,27
2017-02-17T03:58:26.490Z,27.1
2017-02-17T03:59:26.489Z,27.1
2017-02-17T04:00:26.490Z,27.1
2017-02-17T04:01:24.536Z,27
2017-02-17T04:02:24.789Z,27
2017-02-17T04:03:26.761Z,27
2017-02-17T04:04:26.839Z,27
2017-02-17T04:05:24.850Z,27.1
2017-02-17T04:06:26.867Z,27.1
2017-02-17T04:07:26.912Z,27.1
2017-02-17T04:08:27.633Z,27
2017-02-17T04:09:27.025Z,27
2017-02-17T04:10:25.058Z,27
2017-02-17T04:11:25.124Z,27
2017-02-17T04:12:25.269Z,27
2017-02-17T04:13:27.188Z,27
2017-02-17T04:14:27.118Z,27
2017-02-17T04:15:27.287Z,27
2017-02-17T04:16:25.328Z,27
2017-02-17T04:17:27.274Z,27
2017-02-17T04:18:25.269Z,27
2017-02-17T04:19:27.343Z,27
2017-02-17T04:20:25.367Z,27
2017-02-17T04:21:25.504Z,27
2017-02-17T04:22:27.395Z,27.1
2017-02-17T04:23:27.517Z,27
2017-02-17T04:24:27.521Z,27
2017-02-17T04:25:27.587Z,27
2017-02-17T04:26:27.657Z,27
2017-02-17T04:27:25.769Z,27
2017-02-17T04:28:27.723Z,27
2017-02-17T04:29:27.836Z,27
2017-02-17T04:30:27.954Z,27
2017-02-17T04:31:27.908Z,27
2017-02-17T04:32:26.140Z,27
2017-02-17T04:33:26.074Z,27
2017-02-17T04:34:26.214Z,27
2017-02-17T04:35:28.079Z,27
2017-02-17T04:36:28.147Z,27
2017-02-17T04:37:26.240Z,27
2017-02-17T04:38:28.262Z,27
2017-02-17T04:39:28.198Z,27
2017-02-17T04:40:26.407Z,27
2017-02-17T04:41:28.271Z,27
2017-02-17T04:42:27.110Z,27
2017-02-17T04:43:28.414Z,27
2017-02-17T04:44:26.425Z,27.1
2017-02-17T04:45:27.123Z,27.1
2017-02-17T04:46:29.239Z,27.1
2017-02-17T04:47:28.534Z,27.1
2017-02-17T04:48:26.674Z,27.2
2017-02-17T04:49:27.415Z,27.2
2017-02-17T04:50:26.917Z,27.2
2017-02-17T04:51:26.916Z,27.2
2017-02-17T04:52:28.746Z,27.2
2017-02-17T04:53:28.855Z,27.2
2017-02-17T04:54:28.848Z,27.2
2017-02-17T04:55:27.665Z,27.2
2017-02-17T04:56:29.030Z,27.2
2017-02-17T04:57:28.929Z,27.2
2017-02-17T04:58:28.983Z,27.2
2017-02-17T04:59:29.156Z,27.2
2017-02-17T05:00:29.126Z,27.2
2017-02-17T05:01:27.376Z,27.2
2017-02-17T05:02:29.264Z,27.2
2017-02-17T05:03:27.422Z,27.2
2017-02-17T05:04:29.391Z,27.2
2017-02-17T05:05:27.489Z,27.2
2017-02-17T05:06:27.545Z,27.2
2017-02-17T05:07:27.627Z,27.2
2017-02-17T05:08:27.534Z,27.2
2017-02-17T05:09:27.635Z,27.2
2017-02-17T05:10:29.594Z,27.2
2017-02-17T05:11:27.715Z,27.2
2017-02-17T05:12:29.618Z,27.2
2017-02-17T05:13:29.663Z,27.2
2017-02-17T05:14:29.739Z,27.2
2017-02-17T05:15:27.913Z,27.1
2017-02-17T05:16:29.833Z,27.1
2017-02-17T05:17:28.085Z,27.2
2017-02-17T05:18:30.023Z,27.1
2017-02-17T05:19:28.124Z,27.1
2017-02-17T05:20:30.185Z,27.1
2017-02-17T05:21:30.154Z,27.2
2017-02-17T05:22:28.351Z,27.1
2017-02-17T05:23:30.267Z,27.1
2017-02-17T05:24:28.357Z,27.1
2017-02-17T05:25:30.385Z,27.1
2017-02-17T05:26:28.386Z,27.1
2017-02-17T05:27:28.442Z,27.1
2017-02-17T05:28:28.463Z,27.1
2017-02-17T05:29:28.456Z,27.1
2017-02-17T05:30:30.473Z,27.1
2017-02-17T05:31:30.513Z,27.1
2017-02-17T05:32:30.597Z,27.1
2017-02-17T05:33:29.069Z,27.1
2017-02-17T05:34:30.617Z,27.1
2017-02-17T05:35:30.719Z,27.1
2017-02-17T05:36:30.710Z,27.1
2017-02-17T05:37:28.875Z,27.1
2017-02-17T05:38:30.866Z,27.1
2017-02-17T05:39:29.326Z,27.1
2017-02-17T05:40:29.011Z,27.1
2017-02-17T05:41:31.063Z,27.1
2017-02-17T05:42:31.140Z,27.1
2017-02-17T05:43:29.180Z,27.1
2017-02-17T05:44:29.172Z,27.1
2017-02-17T05:45:31.427Z,27.1
2017-02-17T05:46:31.282Z,27.1
2017-02-17T05:47:31.290Z,27.1
2017-02-17T05:48:29.550Z,27.1
2017-02-17T05:49:31.496Z,27.1
2017-02-17T05:50:31.486Z,27.1
2017-02-17T05:51:31.771Z,27.1
2017-02-17T05:52:31.725Z,27.1
2017-02-17T05:53:29.915Z,27.1
2017-02-17T05:54:31.884Z,27.1
2017-02-17T05:55:31.955Z,27.1
2017-02-17T05:56:32.000Z,27.1
2017-02-17T05:57:32.275Z,27.1
2017-02-17T05:58:30.187Z,27.1
2017-02-17T05:59:30.193Z,27.1
2017-02-17T06:00:30.297Z,27.1
2017-02-17T06:01:32.257Z,27.1
2017-02-17T06:02:32.287Z,27.1
2017-02-17T06:03:30.699Z,27.1
2017-02-17T06:04:30.393Z,27.1
2017-02-17T06:05:32.454Z,27.1
2017-02-17T06:06:30.503Z,27.1
2017-02-17T06:07:30.561Z,27.1
2017-02-17T06:08:32.513Z,27.1
2017-02-17T06:09:30.854Z,27.1
2017-02-17T06:10:30.693Z,27.1
2017-02-17T06:11:32.582Z,27.1
2017-02-17T06:12:32.668Z,27.1
2017-02-17T06:13:32.621Z,27.1
2017-02-17T06:14:32.746Z,27.1
2017-02-17T06:15:33.053Z,27.1
2017-02-17T06:16:32.873Z,27.1
2017-02-17T06:17:31.099Z,27.1
2017-02-17T06:18:32.938Z,27.1
2017-02-17T06:19:31.162Z,27.1
2017-02-17T06:20:33.024Z,27.1
2017-02-17T06:21:33.344Z,27.1
2017-02-17T06:22:33.145Z,27.1
2017-02-17T06:23:31.286Z,27.1
2017-02-17T06:24:33.196Z,27.1
2017-02-17T06:25:31.358Z,27.1
2017-02-17T06:26:31.449Z,27
2017-02-17T06:27:31.896Z,27
2017-02-17T06:28:31.557Z,27
2017-02-17T06:29:33.580Z,27
2017-02-17T06:30:33.676Z,27
2017-02-17T06:31:31.854Z,27
2017-02-17T06:32:31.759Z,27
2017-02-17T06:33:33.975Z,27
2017-02-17T06:34:31.908Z,27
2017-02-17T06:35:31.866Z,27
2017-02-17T06:36:31.932Z,27
2017-02-17T06:37:31.884Z,27
2017-02-17T06:38:33.876Z,27
2017-02-17T06:39:32.283Z,27
2017-02-17T06:40:33.993Z,27
2017-02-17T06:41:34.055Z,27
2017-02-17T06:42:34.131Z,27
2017-02-17T06:43:32.269Z,27
2017-02-17T06:44:32.250Z,27
2017-02-17T06:45:34.477Z,27
2017-02-17T06:46:34.300Z,27
2017-02-17T06:47:34.332Z,27
2017-02-17T06:48:32.517Z,27
2017-02-17T06:49:32.568Z,27.1
2017-02-17T06:50:34.459Z,27
2017-02-17T06:51:34.703Z,27.1
2017-02-17T06:52:34.668Z,27.1
2017-02-17T06:53:34.633Z,27.1
2017-02-17T06:54:34.719Z,27.1
2017-02-17T06:55:32.734Z,27.1
2017-02-17T06:56:34.762Z,27.1
2017-02-17T06:57:33.095Z,27.1
2017-02-17T06:58:34.957Z,27.2
2017-02-17T06:59:34.957Z,27.2
2017-02-17T07:00:33.159Z,27.2
2017-02-17T07:01:33.079Z,27.2
2017-02-17T07:02:33.166Z,27.2
2017-02-17T07:03:35.306Z,27.3
2017-02-17T07:04:33.251Z,27.3
2017-02-17T07:05:35.328Z,27.3
2017-02-17T07:06:35.220Z,27.3
2017-02-17T07:07:35.372Z,27.3
2017-02-17T07:08:35.391Z,27.3
2017-02-17T07:09:33.816Z,27.4
2017-02-17T07:10:33.555Z,27.4
2017-02-17T07:11:35.457Z,27.4
2017-02-17T07:12:34.608Z,27.4
2017-02-17T07:13:35.590Z,27.4
2017-02-17T07:14:35.580Z,27.5
2017-02-17T07:15:34.143Z,27.5
2017-02-17T07:16:33.914Z,27.5
2017-02-17T07:17:33.896Z,27.5
2017-02-17T07:18:33.956Z,27.5
2017-02-17T07:19:33.904Z,27.5
2017-02-17T07:20:35.922Z,27.5
2017-02-17T07:21:36.183Z,27.6
2017-02-17T07:22:37.203Z,27.6
2017-02-17T07:23:34.678Z,27.6
2017-02-17T07:24:34.124Z,27.6
2017-02-17T07:25:36.047Z,27.6
2017-02-17T07:26:34.218Z,27.6
2017-02-17T07:27:35.506Z,27.7
2017-02-17T07:28:34.170Z,27.7
2017-02-17T07:29:36.146Z,27.7
2017-02-17T07:30:34.331Z,27.7
2017-02-17T07:31:34.330Z,27.7
2017-02-17T07:32:36.230Z,27.7
2017-02-17T07:33:34.673Z,27.7
2017-02-17T07:34:34.438Z,27.7
2017-02-17T07:35:34.600Z,27.7
2017-02-17T07:36:35.734Z,27.8
2017-02-17T07:37:34.603Z,27.8
2017-02-17T07:38:34.862Z,27.8
2017-02-17T07:39:34.741Z,27.8
2017-02-17T07:40:34.748Z,27.8
2017-02-17T07:41:34.890Z,27.8
2017-02-17T07:42:34.940Z,27.8
2017-02-17T07:43:36.842Z,27.8
2017-02-17T07:44:35.369Z,27.9
2017-02-17T07:45:36.977Z,27.9
2017-02-17T07:46:37.113Z,27.9
2017-02-17T07:47:35.179Z,27.9
2017-02-17T07:48:35.126Z,27.9
2017-02-17T07:49:35.148Z,27.9
2017-02-17T07:50:36.073Z,27.9
2017-02-17T07:51:35.261Z,28
2017-02-17T07:52:37.280Z,28
2017-02-17T07:53:37.220Z,28
2017-02-17T07:54:35.421Z,28
2017-02-17T07:55:35.453Z,28
2017-02-17T07:56:35.899Z,28
2017-02-17T07:57:37.454Z,28
2017-02-17T07:58:35.544Z,28
2017-02-17T07:59:35.651Z,28
2017-02-17T08:00:35.718Z,28
2017-02-17T08:01:35.667Z,28.1
2017-02-17T08:02:37.996Z,28.1
2017-02-17T08:03:35.813Z,28.1
2017-02-17T08:04:35.877Z,28.1
2017-02-17T08:05:35.848Z,28.1
2017-02-17T08:06:37.809Z,28.1
2017-02-17T08:07:35.971Z,28.1
2017-02-17T08:08:38.181Z,28.1
2017-02-17T08:09:38.106Z,28.1
2017-02-17T08:10:36.231Z,28.1
2017-02-17T08:11:36.293Z,28.1
2017-02-17T08:12:38.259Z,28.2
2017-02-17T08:13:36.376Z,28.2
2017-02-17T08:14:36.587Z,28.2
2017-02-17T08:15:36.436Z,28.2
2017-02-17T08:16:38.424Z,28.2
2017-02-17T08:17:38.501Z,28.2
2017-02-17T08:18:38.633Z,28.2
2017-02-17T08:19:36.707Z,28.2
2017-02-17T08:20:38.647Z,28.2
2017-02-17T08:21:36.882Z,28.2
2017-02-17T08:22:38.814Z,28.2
2017-02-17T08:23:37.073Z,28.2
2017-02-17T08:24:38.936Z,28.2
2017-02-17T08:25:37.187Z,28.2
2017-02-17T08:26:37.246Z,28.2
2017-02-17T08:27:37.191Z,28.2
2017-02-17T08:28:39.307Z,28.2
2017-02-17T08:29:39.261Z,28.2
2017-02-17T08:30:37.439Z,28.2
2017-02-17T08:31:39.477Z,28.2
2017-02-17T08:32:37.628Z,28.2
2017-02-17T08:33:39.559Z,28.3
2017-02-17T08:34:39.597Z,28.3
2017-02-17T08:35:39.671Z,28.3
2017-02-17T08:36:38.389Z,28.3
2017-02-17T08:37:39.657Z,28.3
2017-02-17T08:38:37.774Z,28.3
2017-02-17T08:39:37.792Z,28.3
2017-02-17T08:40:39.723Z,28.3
2017-02-17T08:41:37.827Z,28.3
2017-02-17T08:42:39.811Z,28.3
2017-02-17T08:43:37.958Z,28.3
2017-02-17T08:44:39.971Z,28.3
2017-02-17T08:45:38.019Z,28.3
2017-02-17T08:46:39.961Z,28.3
2017-02-17T08:47:40.063Z,28.3
2017-02-17T08:48:40.033Z,28.3
2017-02-17T08:49:38.174Z,28.3
2017-02-17T08:50:38.402Z,28.3
2017-02-17T08:51:38.878Z,28.4
2017-02-17T08:52:38.368Z,28.4
2017-02-17T08:53:40.460Z,28.4
2017-02-17T08:54:38.618Z,28.4
2017-02-17T08:55:38.838Z,28.4
2017-02-17T08:56:38.615Z,28.4
2017-02-17T08:57:40.608Z,28.4
2017-02-17T08:58:38.683Z,28.4
2017-02-17T08:59:38.780Z,28.4
2017-02-17T09:00:38.739Z,28.4
2017-02-17T09:01:41.029Z,28.4
2017-02-17T09:02:38.972Z,28.4
2017-02-17T09:03:40.918Z,28.5
2017-02-17T09:04:41.000Z,28.5
2017-02-17T09:05:39.063Z,28.5
2017-02-17T09:06:39.181Z,28.5
2017-02-17T09:12:49.548Z,28.5
2017-02-17T09:13:49.386Z,28.6
2017-02-17T09:14:51.232Z,28.6
2017-02-17T09:15:49.483Z,28.6
2017-02-17T09:16:51.501Z,28.6
2017-02-17T09:17:51.484Z,28.6
2017-02-17T09:18:49.657Z,28.6
2017-02-17T09:19:51.530Z,28.6
2017-02-17T09:20:49.604Z,28.6
2017-02-17T09:21:49.778Z,28.6
2017-02-17T09:22:51.709Z,28.6
2017-02-17T09:23:51.696Z,28.6
2017-02-17T09:24:52.052Z,28.6
2017-02-17T09:25:49.889Z,28.6
2017-02-17T09:26:51.890Z,28.6
2017-02-17T09:27:51.923Z,28.6
2017-02-17T09:28:51.946Z,28.6
2017-02-17T09:29:50.098Z,28.6
2017-02-17T09:30:50.225Z,28.6
2017-02-17T09:31:50.233Z,28.6
2017-02-17T09:32:52.149Z,28.6
2017-02-17T09:33:50.940Z,28.6
2017-02-17T09:34:52.209Z,28.6
2017-02-17T09:35:50.429Z,28.6
2017-02-17T09:36:52.567Z,28.6
2017-02-17T09:37:50.490Z,28.6
2017-02-17T09:38:50.619Z,28.6
2017-02-17T09:39:52.568Z,28.6
2017-02-17T09:40:52.601Z,28.6
2017-02-17T09:41:52.630Z,28.6
2017-02-17T09:42:50.920Z,28.6
2017-02-17T09:43:50.888Z,28.6
2017-02-17T09:44:52.833Z,28.7
2017-02-17T09:45:54.376Z,28.7
2017-02-17T09:46:53.040Z,28.7
2017-02-17T09:47:53.538Z,28.7
2017-02-17T09:48:51.346Z,28.7
2017-02-17T09:49:51.134Z,28.7
2017-02-17T09:50:53.091Z,28.7
2017-02-17T09:51:53.129Z,28.7
2017-02-17T09:52:53.213Z,28.7
2017-02-17T09:53:53.229Z,28.7
2017-02-17T09:54:53.421Z,28.7
2017-02-17T09:55:53.277Z,28.7
2017-02-17T09:56:53.386Z,28.7
2017-02-17T09:57:51.619Z,28.7
2017-02-17T09:58:51.599Z,28.8
2017-02-17T09:59:52.944Z,28.7
2017-02-17T10:00:51.884Z,28.7
2017-02-17T10:01:53.804Z,28.7
2017-02-17T10:02:51.965Z,28.7
2017-02-17T10:03:53.878Z,28.7
2017-02-17T10:04:51.954Z,28.7
2017-02-17T10:05:52.150Z,28.7
2017-02-17T10:06:54.068Z,28.7
2017-02-17T10:07:54.013Z,28.7
2017-02-17T10:08:54.108Z,28.7
2017-02-17T10:09:52.174Z,28.7
2017-02-17T10:10:54.124Z,28.7
2017-02-17T10:11:52.263Z,28.7
2017-02-17T10:12:52.237Z,28.7
2017-02-17T10:13:52.445Z,28.7
2017-02-17T10:14:54.224Z,28.7
2017-02-17T10:15:54.345Z,28.7
2017-02-17T10:16:54.319Z,28.7
2017-02-17T10:17:52.528Z,28.8
2017-02-17T10:18:54.345Z,28.8
2017-02-17T10:19:54.458Z,28.7
2017-02-17T10:20:54.344Z,28.7
2017-02-17T10:21:52.582Z,28.7
2017-02-17T10:22:54.549Z,28.7
2017-02-17T10:23:54.603Z,28.7
2017-02-17T10:24:54.748Z,28.7
2017-02-17T10:25:54.676Z,28.7
2017-02-17T10:26:53.382Z,28.7
2017-02-17T10:27:54.767Z,28.7
2017-02-17T10:28:52.963Z,28.7
2017-02-17T10:29:52.859Z,28.7
2017-02-17T10:30:52.917Z,28.7
2017-02-17T10:31:53.045Z,28.7
2017-02-17T10:32:53.069Z,28.7
2017-02-17T10:33:53.021Z,28.8
2017-02-17T10:34:53.098Z,28.8
2017-02-17T10:35:53.232Z,28.8
2017-02-17T10:36:53.204Z,28.8
2017-02-17T10:37:55.205Z,28.8
2017-02-17T10:38:55.288Z,28.8
2017-02-17T10:39:55.356Z,28.8
2017-02-17T10:40:55.422Z,28.8
2017-02-17T10:41:56.166Z,28.8
2017-02-17T10:42:53.381Z,28.8
2017-02-17T10:43:53.497Z,28.8
2017-02-17T10:44:53.475Z,28.8
2017-02-17T10:45:53.707Z,28.9
2017-02-17T10:46:53.713Z,28.8
2017-02-17T10:47:55.636Z,28.9
2017-02-17T10:48:55.508Z,28.9
2017-02-17T10:49:53.550Z,28.9
2017-02-17T10:50:55.579Z,28.9
2017-02-17T10:51:55.738Z,28.9
2017-02-17T10:52:53.738Z,28.9
2017-02-17T10:53:53.877Z,28.9
2017-02-17T10:54:55.795Z,28.9
2017-02-17T10:55:53.936Z,28.9
2017-02-17T10:56:53.977Z,28.9
2017-02-17T10:57:55.907Z,28.9
2017-02-17T10:58:54.705Z,28.9
2017-02-17T10:59:54.020Z,28.9
2017-02-17T11:00:54.238Z,29
2017-02-17T11:01:56.197Z,29
2017-02-17T11:02:54.346Z,29
2017-02-17T11:03:54.441Z,28.9
2017-02-17T11:04:54.434Z,28.9
2017-02-17T11:05:56.337Z,28.7
2017-02-17T11:06:54.452Z,28.6
2017-02-17T11:07:57.037Z,28.6
2017-02-17T11:08:57.177Z,28.5
2017-02-17T11:09:54.645Z,28.5
2017-02-17T11:10:54.739Z,28.4
2017-02-17T11:11:57.350Z,28.3
2017-02-17T11:12:57.993Z,28.3
2017-02-17T11:13:54.958Z,28.3
2017-02-17T11:14:54.876Z,28.3
2017-02-17T11:15:57.520Z,28.2
2017-02-17T11:16:55.035Z,28.1
2017-02-17T11:17:55.336Z,28.1
2017-02-17T11:18:55.258Z,28.2
2017-02-17T11:19:55.772Z,28.2
2017-02-17T11:20:57.866Z,28.1
2017-02-17T11:21:57.379Z,28.1
2017-02-17T11:22:55.399Z,28.1
2017-02-17T11:23:57.651Z,28
2017-02-17T11:24:55.657Z,28.1
2017-02-17T11:25:57.620Z,28.1
2017-02-17T11:26:58.308Z,28.1
2017-02-17T11:27:57.018Z,28.1
2017-02-17T11:28:55.863Z,28.1
2017-02-17T11:29:57.899Z,28.1
2017-02-17T11:30:57.922Z,28.1
2017-02-17T11:31:55.899Z,28
2017-02-17T11:32:57.954Z,28
2017-02-17T11:33:56.049Z,28
2017-02-17T11:34:58.126Z,28
2017-02-17T11:35:58.180Z,27.9
2017-02-17T11:36:58.179Z,27.9
2017-02-17T11:37:58.319Z,27.8
2017-02-17T11:38:56.483Z,27.8
2017-02-17T11:39:56.526Z,27.8
2017-02-17T11:40:56.494Z,27.8
2017-02-17T11:41:58.565Z,27.8
2017-02-17T11:42:56.703Z,27.7
2017-02-17T11:43:57.287Z,27.7
2017-02-17T11:44:56.792Z,27.7
2017-02-17T11:45:58.789Z,27.7
2017-02-17T11:46:58.805Z,27.7
2017-02-17T11:47:56.748Z,27.7
2017-02-17T11:48:59.383Z,27.7
2017-02-17T11:49:56.973Z,27.7
2017-02-17T11:50:57.000Z,27.7
2017-02-17T11:51:56.967Z,27.8
2017-02-17T11:52:56.971Z,27.8
2017-02-17T11:53:58.921Z,27.8
2017-02-17T11:54:59.686Z,27.8
2017-02-17T11:55:59.036Z,27.8
2017-02-17T11:56:57.291Z,27.8
2017-02-17T11:57:57.189Z,27.9
2017-02-17T11:58:59.217Z,27.9
2017-02-17T11:59:59.314Z,27.9
2017-02-17T12:00:59.297Z,27.9
2017-02-17T12:01:57.536Z,27.9
2017-02-17T12:02:59.416Z,27.9
2017-02-17T12:03:59.491Z,27.9
2017-02-17T12:04:57.514Z,27.9
2017-02-17T12:05:59.498Z,27.9
2017-02-17T12:06:59.595Z,28
2017-02-17T12:07:59.741Z,28
2017-02-17T12:08:57.729Z,28
2017-02-17T12:09:57.797Z,28
2017-02-17T12:10:59.867Z,28
2017-02-17T12:11:57.846Z,28
2017-02-17T12:12:59.952Z,28
2017-02-17T12:13:58.006Z,28
2017-02-17T12:14:57.911Z,28.1
2017-02-17T12:15:58.095Z,28.1
2017-02-17T12:16:58.053Z,28.1
2017-02-17T12:17:58.044Z,28.1
2017-02-17T12:19:00.050Z,28.1
2017-02-17T12:19:58.145Z,28.1
2017-02-17T12:21:00.243Z,28.1
2017-02-17T12:21:58.325Z,28.2
2017-02-17T12:23:00.429Z,28.2
2017-02-17T12:23:58.535Z,28.2
2017-02-17T12:24:58.575Z,28.2
2017-02-17T12:26:00.635Z,28.2
2017-02-17T12:27:00.643Z,28.2
2017-02-17T12:28:00.750Z,28.2
2017-02-17T12:29:00.834Z,28.3
2017-02-17T12:29:58.974Z,28.4
2017-02-17T12:30:59.046Z,28.5
2017-02-17T12:31:59.172Z,28.6
2017-02-17T12:32:59.129Z,28.6
2017-02-17T12:33:59.189Z,28.7
2017-02-17T12:34:59.880Z,28.7
2017-02-17T12:35:59.233Z,28.7
2017-02-17T12:36:59.339Z,28.8
2017-02-17T12:37:59.230Z,28.8
2017-02-17T12:38:59.252Z,28.8
2017-02-17T12:39:59.355Z,28.9
2017-02-17T12:41:00.135Z,28.9
2017-02-17T12:41:59.465Z,28.9
2017-02-17T12:43:00.751Z,28.9
2017-02-17T12:43:59.672Z,28.9
2017-02-17T12:45:01.651Z,28.9
2017-02-17T12:45:59.774Z,28.9
2017-02-17T12:47:01.645Z,29
2017-02-17T12:48:02.308Z,29
2017-02-17T12:49:01.814Z,29
2017-02-17T12:49:59.864Z,29
2017-02-17T12:50:59.849Z,29
2017-02-17T12:51:59.871Z,29.1
2017-02-17T12:53:01.836Z,29.1
2017-02-17T12:54:01.833Z,29.1
2017-02-17T12:55:01.966Z,29.1
2017-02-17T12:56:00.021Z,29.1
2017-02-17T12:57:00.071Z,29.1
2017-02-17T12:58:00.230Z,29.1
2017-02-17T12:59:02.187Z,29.2
2017-02-17T13:00:00.230Z,29.2
2017-02-17T13:01:00.404Z,29.2
2017-02-17T13:02:00.282Z,29.2
2017-02-17T13:03:02.820Z,29.2
2017-02-17T13:04:02.279Z,29.2
2017-02-17T13:05:00.463Z,29.2
2017-02-17T13:06:02.376Z,29.2
2017-02-17T13:07:01.330Z,29.2
2017-02-17T13:08:02.475Z,29.2
2017-02-17T13:09:00.828Z,29.2
2017-02-17T13:10:00.733Z,29.2
2017-02-17T13:11:02.572Z,29.2
2017-02-17T13:12:00.767Z,29.2
2017-02-17T13:13:00.873Z,29.2
2017-02-17T13:14:02.906Z,29.2
2017-02-17T13:15:01.132Z,29.3
2017-02-17T13:16:01.013Z,29.3
2017-02-17T13:17:02.974Z,29.3
2017-02-17T13:18:03.041Z,29.3
2017-02-17T13:19:01.086Z,29.2
2017-02-17T13:20:01.129Z,29.3
2017-02-17T13:21:03.272Z,29.3
2017-02-17T13:22:01.237Z,29.4
2017-02-17T13:23:03.881Z,29.4
2017-02-17T13:24:03.357Z,29.4
2017-02-17T13:25:03.328Z,29.4
2017-02-17T13:26:01.606Z,29.5
2017-02-17T13:27:01.749Z,29.5
2017-02-17T13:28:03.496Z,29.5
2017-02-17T13:29:01.607Z,29.5
2017-02-17T13:30:03.693Z,29.6
2017-02-17T13:31:03.718Z,29.7